sensor_id;sensor_type;location;lat;lon;timestamp;pressure;altitude;pressure_sealevel;temperature;humidity
16016;BME280;8112;53.592;10.184;2023-09-07T00:01:48;102027.41;;;19.71;100.00
16016;BME280;8112;53.592;10.184;2023-09-07T00:06:53;102023.44;;;19.88;100.00
16016;BME280;8112;53.592;10.184;2023-09-07T00:11:56;102031.47;;;19.88;100.00
16016;BME280;8112;53.592;10.184;2023-09-07T00:16:58;102029.25;;;19.82;100.00
16016;BME280;8112;53.592;10.184;2023-09-07T00:21:59;102024.13;;;19.68;100.00
16016;BME280;8112;53.592;10.184;2023-09-07T00:27:03;102031.50;;;19.52;100.00
16016;BME280;8112;53.592;10.184;2023-09-07T00:32:06;102024.81;;;19.47;100.00
16016;BME280;8112;53.592;10.184;2023-09-07T00:37:08;102028.28;;;19.36;100.00
16016;BME280;8112;53.592;10.184;2023-09-07T00:42:11;102031.44;;;19.30;100.00
16016;BME280;8112;53.592;10.184;2023-09-07T00:47:12;102036.28;;;19.25;100.00
16016;BME280;8112;53.592;10.184;2023-09-07T00:52:14;102030.94;;;19.25;100.00
16016;BME280;8112;53.592;10.184;2023-09-07T00:57:17;102035.03;;;19.17;100.00
16016;BME280;8112;53.592;10.184;2023-09-07T01:02:19;102034.03;;;19.07;100.00
16016;BME280;8112;53.592;10.184;2023-09-07T01:07:24;102027.72;;;19.08;100.00
16016;BME280;8112;53.592;10.184;2023-09-07T01:12:28;102019.25;;;19.14;100.00
16016;BME280;8112;53.592;10.184;2023-09-07T01:17:29;102019.97;;;19.16;100.00
16016;BME280;8112;53.592;10.184;2023-09-07T01:22:33;102007.63;;;19.27;100.00
16016;BME280;8112;53.592;10.184;2023-09-07T01:27:35;102016.31;;;19.17;100.00
16016;BME280;8112;53.592;10.184;2023-09-07T01:32:37;102014.38;;;19.08;100.00
16016;BME280;8112;53.592;10.184;2023-09-07T01:37:40;102019.94;;;18.92;100.00
16016;BME280;8112;53.592;10.184;2023-09-07T01:42:42;102020.88;;;18.79;100.00
16016;BME280;8112;53.592;10.184;2023-09-07T01:47:44;102017.81;;;18.73;100.00
16016;BME280;8112;53.592;10.184;2023-09-07T01:52:48;102021.44;;;18.72;100.00
16016;BME280;8112;53.592;10.184;2023-09-07T01:57:50;102026.06;;;18.70;100.00
16016;BME280;8112;53.592;10.184;2023-09-07T02:02:51;102032.34;;;18.69;100.00
16016;BME280;8112;53.592;10.184;2023-09-07T02:07:54;102026.06;;;18.70;100.00
16016;BME280;8112;53.592;10.184;2023-09-07T02:12:56;102029.50;;;18.59;100.00
16016;BME280;8112;53.592;10.184;2023-09-07T02:17:58;102024.78;;;18.62;100.00
16016;BME280;8112;53.592;10.184;2023-09-07T02:23:01;102019.22;;;18.65;100.00
16016;BME280;8112;53.592;10.184;2023-09-07T02:28:03;102022.84;;;18.64;100.00
16016;BME280;8112;53.592;10.184;2023-09-07T02:33:06;102028.34;;;18.74;100.00
16016;BME280;8112;53.592;10.184;2023-09-07T02:38:09;102031.31;;;18.58;100.00
16016;BME280;8112;53.592;10.184;2023-09-07T02:43:11;102032.88;;;18.36;100.00
16016;BME280;8112;53.592;10.184;2023-09-07T02:48:13;102034.06;;;18.32;100.00
16016;BME280;8112;53.592;10.184;2023-09-07T02:53:16;102039.41;;;18.32;100.00
16016;BME280;8112;53.592;10.184;2023-09-07T02:58:19;102049.19;;;18.32;100.00
16016;BME280;8112;53.592;10.184;2023-09-07T03:03:21;102048.25;;;18.20;100.00
16016;BME280;8112;53.592;10.184;2023-09-07T03:08:26;102058.19;;;18.18;100.00
16016;BME280;8112;53.592;10.184;2023-09-07T03:13:27;102064.19;;;18.21;100.00
16016;BME280;8112;53.592;10.184;2023-09-07T03:18:31;102055.19;;;18.09;100.00
16016;BME280;8112;53.592;10.184;2023-09-07T03:23:34;102046.44;;;18.07;100.00
16016;BME280;8112;53.592;10.184;2023-09-07T03:28:37;102047.81;;;18.00;100.00
16016;BME280;8112;53.592;10.184;2023-09-07T03:33:39;102048.44;;;17.91;100.00
16016;BME280;8112;53.592;10.184;2023-09-07T03:38:43;102052.63;;;17.95;100.00
16016;BME280;8112;53.592;10.184;2023-09-07T03:43:46;102068.22;;;17.88;100.00
16016;BME280;8112;53.592;10.184;2023-09-07T03:48:48;102074.16;;;17.79;100.00
16016;BME280;8112;53.592;10.184;2023-09-07T03:53:52;102072.66;;;17.75;100.00
16016;BME280;8112;53.592;10.184;2023-09-07T03:58:54;102069.69;;;17.66;100.00
16016;BME280;8112;53.592;10.184;2023-09-07T04:03:55;102072.88;;;17.72;100.00
16016;BME280;8112;53.592;10.184;2023-09-07T04:08:58;102075.84;;;17.67;100.00
16016;BME280;8112;53.592;10.184;2023-09-07T04:14:00;102071.56;;;17.64;100.00
16016;BME280;8112;53.592;10.184;2023-09-07T04:19:02;102065.84;;;17.58;100.00
16016;BME280;8112;53.592;10.184;2023-09-07T04:24:06;102068.81;;;17.53;100.00
16016;BME280;8112;53.592;10.184;2023-09-07T04:29:07;102078.59;;;17.52;100.00
16016;BME280;8112;53.592;10.184;2023-09-07T04:34:09;102082.22;;;17.51;100.00
16016;BME280;8112;53.592;10.184;2023-09-07T04:39:13;102074.97;;;17.53;100.00
16016;BME280;8112;53.592;10.184;2023-09-07T04:44:15;102085.03;;;17.63;100.00
16016;BME280;8112;53.592;10.184;2023-09-07T04:49:17;102091.25;;;17.76;100.00
16016;BME280;8112;53.592;10.184;2023-09-07T04:54:20;102085.03;;;17.89;100.00
16016;BME280;8112;53.592;10.184;2023-09-07T04:59:22;102091.47;;;17.99;100.00
16016;BME280;8112;53.592;10.184;2023-09-07T05:04:24;102088.16;;;18.08;100.00
16016;BME280;8112;53.592;10.184;2023-09-07T05:09:27;102096.19;;;18.21;100.00
16016;BME280;8112;53.592;10.184;2023-09-07T05:14:30;102096.28;;;18.33;100.00
16016;BME280;8112;53.592;10.184;2023-09-07T05:19:32;102094.13;;;18.38;100.00
16016;BME280;8112;53.592;10.184;2023-09-07T05:24:38;102093.56;;;18.46;100.00
16016;BME280;8112;53.592;10.184;2023-09-07T05:29:41;102101.47;;;18.60;100.00
16016;BME280;8112;53.592;10.184;2023-09-07T05:34:43;102101.84;;;18.80;100.00
16016;BME280;8112;53.592;10.184;2023-09-07T05:39:48;102102.22;;;19.00;100.00
16016;BME280;8112;53.592;10.184;2023-09-07T05:44:50;102101.50;;;19.22;100.00
16016;BME280;8112;53.592;10.184;2023-09-07T05:49:52;102109.34;;;19.36;100.00
16016;BME280;8112;53.592;10.184;2023-09-07T05:54:55;102114.63;;;19.49;100.00
16016;BME280;8112;53.592;10.184;2023-09-07T05:59:57;102112.50;;;19.66;100.00
16016;BME280;8112;53.592;10.184;2023-09-07T06:04:58;102110.84;;;19.88;100.00
16016;BME280;8112;53.592;10.184;2023-09-07T06:10:02;102111.28;;;20.06;100.00
16016;BME280;8112;53.592;10.184;2023-09-07T06:15:07;102114.31;;;20.24;100.00
16016;BME280;8112;53.592;10.184;2023-09-07T06:20:10;102122.75;;;20.42;100.00
16016;BME280;8112;53.592;10.184;2023-09-07T06:25:13;102118.34;;;20.53;100.00
16016;BME280;8112;53.592;10.184;2023-09-07T06:30:15;102122.63;;;20.55;100.00
16016;BME280;8112;53.592;10.184;2023-09-07T06:35:17;102124.44;;;20.66;100.00
16016;BME280;8112;53.592;10.184;2023-09-07T06:40:21;102130.50;;;20.91;100.00
16016;BME280;8112;53.592;10.184;2023-09-07T06:45:27;102118.00;;;21.24;100.00
16016;BME280;8112;53.592;10.184;2023-09-07T06:50:28;102108.56;;;21.41;100.00
16016;BME280;8112;53.592;10.184;2023-09-07T06:55:32;102117.84;;;21.58;100.00
16016;BME280;8112;53.592;10.184;2023-09-07T07:00:34;102121.38;;;21.59;100.00
16016;BME280;8112;53.592;10.184;2023-09-07T07:05:35;102125.53;;;21.84;100.00
16016;BME280;8112;53.592;10.184;2023-09-07T07:10:39;102119.97;;;21.97;100.00
16016;BME280;8112;53.592;10.184;2023-09-07T07:15:41;102121.34;;;22.23;100.00
16016;BME280;8112;53.592;10.184;2023-09-07T07:20:44;102122.53;;;22.51;100.00
16016;BME280;8112;53.592;10.184;2023-09-07T07:25:47;102120.41;;;22.55;100.00
16016;BME280;8112;53.592;10.184;2023-09-07T07:30:49;102124.00;;;22.75;100.00
16016;BME280;8112;53.592;10.184;2023-09-07T07:35:53;102131.22;;;22.84;100.00
16016;BME280;8112;53.592;10.184;2023-09-07T07:40:56;102137.78;;;22.91;100.00
16016;BME280;8112;53.592;10.184;2023-09-07T07:45:58;102131.56;;;23.20;100.00
16016;BME280;8112;53.592;10.184;2023-09-07T07:51:03;102125.22;;;23.31;100.00
16016;BME280;8112;53.592;10.184;2023-09-07T07:56:14;102128.66;;;23.63;100.00
16016;BME280;8112;53.592;10.184;2023-09-07T08:01:17;102126.94;;;23.72;100.00
16016;BME280;8112;53.592;10.184;2023-09-07T08:06:21;102131.13;;;23.84;100.00
16016;BME280;8112;53.592;10.184;2023-09-07T08:11:25;102129.00;;;23.88;100.00
16016;BME280;8112;53.592;10.184;2023-09-07T08:16:28;102121.25;;;24.32;100.00
16016;BME280;8112;53.592;10.184;2023-09-07T08:21:29;102114.47;;;24.56;100.00
16016;BME280;8112;53.592;10.184;2023-09-07T08:26:32;102111.41;;;24.79;100.00
16016;BME280;8112;53.592;10.184;2023-09-07T08:31:34;102106.50;;;24.93;100.00
16016;BME280;8112;53.592;10.184;2023-09-07T08:36:38;102107.75;;;24.98;100.00
16016;BME280;8112;53.592;10.184;2023-09-07T08:41:43;102114.59;;;25.29;100.00
16016;BME280;8112;53.592;10.184;2023-09-07T08:46:45;102116.88;;;25.60;100.00
16016;BME280;8112;53.592;10.184;2023-09-07T08:51:47;102114.69;;;25.82;100.00
16016;BME280;8112;53.592;10.184;2023-09-07T08:56:51;102107.50;;;25.90;100.00
16016;BME280;8112;53.592;10.184;2023-09-07T09:01:56;102109.06;;;26.01;100.00
16016;BME280;8112;53.592;10.184;2023-09-07T09:06:58;102108.97;;;26.11;100.00
16016;BME280;8112;53.592;10.184;2023-09-07T09:12:08;102109.78;;;26.12;100.00
16016;BME280;8112;53.592;10.184;2023-09-07T09:17:13;102104.19;;;26.31;100.00
16016;BME280;8112;53.592;10.184;2023-09-07T09:22:15;102102.34;;;26.40;100.00
16016;BME280;8112;53.592;10.184;2023-09-07T09:27:19;102101.94;;;26.61;100.00
16016;BME280;8112;53.592;10.184;2023-09-07T09:32:22;102104.69;;;26.78;100.00
16016;BME280;8112;53.592;10.184;2023-09-07T09:37:25;102104.56;;;26.88;100.00
16016;BME280;8112;53.592;10.184;2023-09-07T09:42:28;102106.66;;;26.59;100.00
16016;BME280;8112;53.592;10.184;2023-09-07T09:47:31;102101.53;;;27.16;100.00
16016;BME280;8112;53.592;10.184;2023-09-07T09:52:33;102101.25;;;27.36;100.00
16016;BME280;8112;53.592;10.184;2023-09-07T09:57:37;102099.38;;;27.11;100.00
16016;BME280;8112;53.592;10.184;2023-09-07T10:02:40;102087.00;;;27.34;100.00
16016;BME280;8112;53.592;10.184;2023-09-07T10:07:43;102078.72;;;27.18;100.00
16016;BME280;8112;53.592;10.184;2023-09-07T10:12:51;102084.28;;;27.17;100.00
16016;BME280;8112;53.592;10.184;2023-09-07T10:18:09;102080.75;;;27.16;100.00
16016;BME280;8112;53.592;10.184;2023-09-07T10:23:11;102076.53;;;27.22;100.00
16016;BME280;8112;53.592;10.184;2023-09-07T10:28:22;102076.69;;;27.04;100.00
16016;BME280;8112;53.592;10.184;2023-09-07T10:33:23;102064.19;;;27.28;100.00
16016;BME280;8112;53.592;10.184;2023-09-07T10:38:25;102065.88;;;27.37;100.00
16016;BME280;8112;53.592;10.184;2023-09-07T10:43:30;102062.78;;;27.82;100.00
16016;BME280;8112;53.592;10.184;2023-09-07T10:48:33;102062.16;;;28.51;100.00
16016;BME280;8112;53.592;10.184;2023-09-07T10:53:35;102049.22;;;28.62;100.00
16016;BME280;8112;53.592;10.184;2023-09-07T10:58:38;102049.25;;;29.08;100.00
16016;BME280;8112;53.592;10.184;2023-09-07T11:03:42;102038.59;;;28.83;100.00
16016;BME280;8112;53.592;10.184;2023-09-07T11:08:44;102037.94;;;29.05;100.00
16016;BME280;8112;53.592;10.184;2023-09-07T11:13:47;102030.84;;;29.19;100.00
16016;BME280;8112;53.592;10.184;2023-09-07T11:18:50;102033.16;;;29.07;100.00
16016;BME280;8112;53.592;10.184;2023-09-07T11:23:51;102026.19;;;28.89;100.00
16016;BME280;8112;53.592;10.184;2023-09-07T11:28:56;102028.03;;;29.27;100.00
16016;BME280;8112;53.592;10.184;2023-09-07T11:33:59;102017.84;;;29.67;100.00
16016;BME280;8112;53.592;10.184;2023-09-07T11:39:01;102016.75;;;29.98;100.00
16016;BME280;8112;53.592;10.184;2023-09-07T11:44:07;102015.94;;;30.13;99.90
16016;BME280;8112;53.592;10.184;2023-09-07T11:49:09;102010.31;;;29.84;100.00
16016;BME280;8112;53.592;10.184;2023-09-07T11:54:11;102008.72;;;29.60;100.00
16016;BME280;8112;53.592;10.184;2023-09-07T11:59:14;102002.91;;;29.33;100.00
16016;BME280;8112;53.592;10.184;2023-09-07T12:04:16;102005.25;;;28.98;100.00
16016;BME280;8112;53.592;10.184;2023-09-07T12:09:18;102013.00;;;28.78;100.00
16016;BME280;8112;53.592;10.184;2023-09-07T12:14:21;102000.41;;;28.62;100.00
16016;BME280;8112;53.592;10.184;2023-09-07T12:19:23;101989.75;;;29.07;100.00
16016;BME280;8112;53.592;10.184;2023-09-07T12:24:24;101990.91;;;28.89;100.00
16016;BME280;8112;53.592;10.184;2023-09-07T12:29:27;101972.16;;;28.79;100.00
16016;BME280;8112;53.592;10.184;2023-09-07T12:34:31;101981.72;;;28.67;100.00
16016;BME280;8112;53.592;10.184;2023-09-07T12:39:33;101974.22;;;28.54;100.00
16016;BME280;8112;53.592;10.184;2023-09-07T12:44:36;101973.94;;;28.40;100.00
16016;BME280;8112;53.592;10.184;2023-09-07T12:49:38;101974.03;;;28.32;100.00
16016;BME280;8112;53.592;10.184;2023-09-07T12:54:39;101954.63;;;28.12;100.00
16016;BME280;8112;53.592;10.184;2023-09-07T12:59:42;101950.16;;;28.27;100.00
16016;BME280;8112;53.592;10.184;2023-09-07T13:04:44;101943.47;;;28.38;100.00
16016;BME280;8112;53.592;10.184;2023-09-07T13:09:46;101938.88;;;28.62;100.00
16016;BME280;8112;53.592;10.184;2023-09-07T13:14:49;101934.44;;;28.93;100.00
16016;BME280;8112;53.592;10.184;2023-09-07T13:19:50;101938.41;;;28.58;98.81
16016;BME280;8112;53.592;10.184;2023-09-07T13:24:52;101932.25;;;28.65;100.00
16016;BME280;8112;53.592;10.184;2023-09-07T13:29:55;101921.44;;;29.18;100.00
16016;BME280;8112;53.592;10.184;2023-09-07T13:34:57;101914.69;;;29.14;97.44
16016;BME280;8112;53.592;10.184;2023-09-07T13:39:59;101918.50;;;28.90;95.29
16016;BME280;8112;53.592;10.184;2023-09-07T13:45:02;101925.03;;;28.80;95.77
16016;BME280;8112;53.592;10.184;2023-09-07T13:50:05;101922.19;;;28.97;97.83
16016;BME280;8112;53.592;10.184;2023-09-07T13:55:08;101915.84;;;29.50;97.51
16016;BME280;8112;53.592;10.184;2023-09-07T14:00:11;101913.41;;;29.92;91.70
16016;BME280;8112;53.592;10.184;2023-09-07T14:05:13;101915.28;;;29.69;91.65
16016;BME280;8112;53.592;10.184;2023-09-07T14:10:15;101907.88;;;29.33;89.45
16016;BME280;8112;53.592;10.184;2023-09-07T14:15:18;101915.00;;;29.49;90.31
16016;BME280;8112;53.592;10.184;2023-09-07T14:20:20;101906.19;;;29.62;89.83
16016;BME280;8112;53.592;10.184;2023-09-07T14:25:22;101904.31;;;30.14;82.68
16016;BME280;8112;53.592;10.184;2023-09-07T14:30:25;101903.47;;;29.77;81.74
16016;BME280;8112;53.592;10.184;2023-09-07T14:35:27;101908.53;;;29.50;85.52
16016;BME280;8112;53.592;10.184;2023-09-07T14:40:28;101900.94;;;29.00;82.63
16016;BME280;8112;53.592;10.184;2023-09-07T14:45:31;101903.47;;;28.64;85.00
16016;BME280;8112;53.592;10.184;2023-09-07T14:50:33;101888.97;;;28.56;86.14
16016;BME280;8112;53.592;10.184;2023-09-07T14:55:35;101886.16;;;29.03;87.22
16016;BME280;8112;53.592;10.184;2023-09-07T15:00:46;101891.31;;;28.98;87.57
16016;BME280;8112;53.592;10.184;2023-09-07T15:05:47;101883.19;;;28.74;85.74
16016;BME280;8112;53.592;10.184;2023-09-07T15:10:49;101879.59;;;28.59;84.57
16016;BME280;8112;53.592;10.184;2023-09-07T15:15:52;101874.06;;;28.91;81.22
16016;BME280;8112;53.592;10.184;2023-09-07T15:20:54;101865.78;;;30.61;71.11
16016;BME280;8112;53.592;10.184;2023-09-07T15:25:57;101872.25;;;30.10;70.71
16016;BME280;8112;53.592;10.184;2023-09-07T15:31:00;101858.13;;;30.43;68.04
16016;BME280;8112;53.592;10.184;2023-09-07T15:36:02;101861.59;;;29.71;70.01
16016;BME280;8112;53.592;10.184;2023-09-07T15:41:03;101859.22;;;29.16;71.06
16016;BME280;8112;53.592;10.184;2023-09-07T15:46:06;101855.16;;;29.57;71.50
16016;BME280;8112;53.592;10.184;2023-09-07T15:51:08;101861.19;;;28.93;72.72
16016;BME280;8112;53.592;10.184;2023-09-07T15:56:11;101858.66;;;28.29;77.98
16016;BME280;8112;53.592;10.184;2023-09-07T16:01:14;101858.38;;;27.69;82.64
16016;BME280;8112;53.592;10.184;2023-09-07T16:06:16;101850.16;;;27.54;83.75
16016;BME280;8112;53.592;10.184;2023-09-07T16:11:18;101840.06;;;27.31;88.13
16016;BME280;8112;53.592;10.184;2023-09-07T16:16:21;101845.53;;;27.15;90.10
16016;BME280;8112;53.592;10.184;2023-09-07T16:21:23;101843.88;;;27.06;90.84
16016;BME280;8112;53.592;10.184;2023-09-07T16:26:26;101848.13;;;27.00;93.05
16016;BME280;8112;53.592;10.184;2023-09-07T16:31:29;101842.72;;;26.83;93.15
16016;BME280;8112;53.592;10.184;2023-09-07T16:36:30;101840.50;;;26.79;93.65
16016;BME280;8112;53.592;10.184;2023-09-07T16:41:32;101846.81;;;26.63;95.36
16016;BME280;8112;53.592;10.184;2023-09-07T16:46:35;101855.41;;;26.58;96.77
16016;BME280;8112;53.592;10.184;2023-09-07T16:51:37;101843.09;;;26.47;97.94
16016;BME280;8112;53.592;10.184;2023-09-07T16:56:38;101845.63;;;26.32;100.00
16016;BME280;8112;53.592;10.184;2023-09-07T17:01:42;101836.16;;;26.20;100.00
16016;BME280;8112;53.592;10.184;2023-09-07T17:06:44;101839.19;;;26.08;100.00
16016;BME280;8112;53.592;10.184;2023-09-07T17:11:45;101830.53;;;25.96;100.00
16016;BME280;8112;53.592;10.184;2023-09-07T17:16:48;101835.91;;;25.80;100.00
16016;BME280;8112;53.592;10.184;2023-09-07T17:21:51;101835.16;;;25.53;100.00
16016;BME280;8112;53.592;10.184;2023-09-07T17:26:54;101829.66;;;25.36;100.00
16016;BME280;8112;53.592;10.184;2023-09-07T17:31:57;101825.38;;;25.17;100.00
16016;BME280;8112;53.592;10.184;2023-09-07T17:36:59;101822.88;;;24.97;100.00
16016;BME280;8112;53.592;10.184;2023-09-07T17:42:01;101825.88;;;24.68;100.00
16016;BME280;8112;53.592;10.184;2023-09-07T17:47:04;101833.56;;;24.36;100.00
16016;BME280;8112;53.592;10.184;2023-09-07T17:52:06;101836.81;;;24.03;100.00
16016;BME280;8112;53.592;10.184;2023-09-07T17:57:07;101837.13;;;23.72;100.00
16016;BME280;8112;53.592;10.184;2023-09-07T18:02:18;101849.00;;;23.52;100.00
16016;BME280;8112;53.592;10.184;2023-09-07T18:07:21;101844.84;;;23.29;100.00
16016;BME280;8112;53.592;10.184;2023-09-07T18:12:23;101853.63;;;23.12;100.00
16016;BME280;8112;53.592;10.184;2023-09-07T18:17:26;101850.75;;;22.85;100.00
16016;BME280;8112;53.592;10.184;2023-09-07T18:22:27;101862.22;;;22.58;100.00
16016;BME280;8112;53.592;10.184;2023-09-07T18:27:30;101865.19;;;22.35;100.00
16016;BME280;8112;53.592;10.184;2023-09-07T18:32:33;101866.88;;;22.26;100.00
16016;BME280;8112;53.592;10.184;2023-09-07T18:37:35;101866.44;;;22.11;100.00
16016;BME280;8112;53.592;10.184;2023-09-07T18:42:38;101874.31;;;21.93;100.00
16016;BME280;8112;53.592;10.184;2023-09-07T18:47:41;101875.31;;;21.92;100.00
16016;BME280;8112;53.592;10.184;2023-09-07T18:52:43;101877.69;;;21.95;100.00
16016;BME280;8112;53.592;10.184;2023-09-07T18:57:45;101870.81;;;22.02;100.00
16016;BME280;8112;53.592;10.184;2023-09-07T19:02:48;101875.31;;;22.02;100.00
16016;BME280;8112;53.592;10.184;2023-09-07T19:07:50;101873.50;;;22.02;100.00
16016;BME280;8112;53.592;10.184;2023-09-07T19:12:52;101871.94;;;22.00;100.00
16016;BME280;8112;53.592;10.184;2023-09-07T19:17:55;101869.66;;;21.95;100.00
16016;BME280;8112;53.592;10.184;2023-09-07T19:22:57;101871.91;;;21.90;100.00
16016;BME280;8112;53.592;10.184;2023-09-07T19:27:59;101876.44;;;21.89;100.00
16016;BME280;8112;53.592;10.184;2023-09-07T19:33:02;101869.34;;;21.78;100.00
16016;BME280;8112;53.592;10.184;2023-09-07T19:38:04;101877.66;;;21.75;100.00
16016;BME280;8112;53.592;10.184;2023-09-07T19:43:06;101879.00;;;21.60;100.00
16016;BME280;8112;53.592;10.184;2023-09-07T19:48:09;101867.81;;;21.55;100.00
16016;BME280;8112;53.592;10.184;2023-09-07T19:53:11;101863.31;;;21.55;100.00
16016;BME280;8112;53.592;10.184;2023-09-07T19:58:12;101862.72;;;21.52;100.00
16016;BME280;8112;53.592;10.184;2023-09-07T20:03:15;101864.97;;;21.46;100.00
16016;BME280;8112;53.592;10.184;2023-09-07T20:08:17;101867.34;;;21.40;100.00
16016;BME280;8112;53.592;10.184;2023-09-07T20:13:19;101865.72;;;21.27;100.00
16016;BME280;8112;53.592;10.184;2023-09-07T20:18:22;101866.06;;;21.13;100.00
16016;BME280;8112;53.592;10.184;2023-09-07T20:23:23;101865.63;;;21.07;100.00
16016;BME280;8112;53.592;10.184;2023-09-07T20:28:25;101870.59;;;21.12;100.00
16016;BME280;8112;53.592;10.184;2023-09-07T20:33:28;101866.22;;;21.11;100.00
16016;BME280;8112;53.592;10.184;2023-09-07T20:38:30;101867.28;;;20.99;100.00
16016;BME280;8112;53.592;10.184;2023-09-07T20:43:32;101872.19;;;20.93;100.00
16016;BME280;8112;53.592;10.184;2023-09-07T20:48:35;101881.59;;;20.88;100.00
16016;BME280;8112;53.592;10.184;2023-09-07T20:53:38;101874.66;;;20.85;100.00
16016;BME280;8112;53.592;10.184;2023-09-07T20:58:39;101862.75;;;20.78;100.00
16016;BME280;8112;53.592;10.184;2023-09-07T21:03:43;101872.28;;;20.71;100.00
16016;BME280;8112;53.592;10.184;2023-09-07T21:08:44;101856.06;;;20.72;100.00
16016;BME280;8112;53.592;10.184;2023-09-07T21:13:46;101851.09;;;20.68;100.00
16016;BME280;8112;53.592;10.184;2023-09-07T21:18:49;101853.63;;;20.48;100.00
16016;BME280;8112;53.592;10.184;2023-09-07T21:23:53;101859.84;;;20.16;100.00
16016;BME280;8112;53.592;10.184;2023-09-07T21:28:54;101852.94;;;19.90;100.00
16016;BME280;8112;53.592;10.184;2023-09-07T21:33:58;101849.31;;;19.80;100.00
16016;BME280;8112;53.592;10.184;2023-09-07T21:38:59;101856.22;;;19.94;100.00
16016;BME280;8112;53.592;10.184;2023-09-07T21:44:01;101854.25;;;20.07;100.00
16016;BME280;8112;53.592;10.184;2023-09-07T21:49:04;101849.53;;;20.00;100.00
16016;BME280;8112;53.592;10.184;2023-09-07T21:54:07;101841.13;;;20.04;100.00
16016;BME280;8112;53.592;10.184;2023-09-07T21:59:09;101847.22;;;20.06;100.00
16016;BME280;8112;53.592;10.184;2023-09-07T22:04:12;101846.88;;;20.00;100.00
16016;BME280;8112;53.592;10.184;2023-09-07T22:09:15;101835.44;;;19.98;100.00
16016;BME280;8112;53.592;10.184;2023-09-07T22:14:16;101841.31;;;19.91;100.00
16016;BME280;8112;53.592;10.184;2023-09-07T22:19:19;101835.81;;;19.82;100.00
16016;BME280;8112;53.592;10.184;2023-09-07T22:24:21;101840.97;;;19.62;100.00
16016;BME280;8112;53.592;10.184;2023-09-07T22:29:23;101832.00;;;19.40;100.00
16016;BME280;8112;53.592;10.184;2023-09-07T22:34:27;101834.41;;;19.32;100.00
16016;BME280;8112;53.592;10.184;2023-09-07T22:39:31;101834.16;;;19.23;100.00
16016;BME280;8112;53.592;10.184;2023-09-07T22:44:33;101831.72;;;19.20;100.00
16016;BME280;8112;53.592;10.184;2023-09-07T22:49:36;101827.00;;;19.13;100.00
16016;BME280;8112;53.592;10.184;2023-09-07T22:54:38;101829.31;;;19.06;100.00
16016;BME280;8112;53.592;10.184;2023-09-07T22:59:39;101831.47;;;19.01;100.00
16016;BME280;8112;53.592;10.184;2023-09-07T23:04:42;101839.19;;;18.92;100.00
16016;BME280;8112;53.592;10.184;2023-09-07T23:09:44;101834.31;;;18.75;100.00
16016;BME280;8112;53.592;10.184;2023-09-07T23:14:46;101839.16;;;18.70;100.00
16016;BME280;8112;53.592;10.184;2023-09-07T23:19:49;101839.50;;;18.65;100.00
16016;BME280;8112;53.592;10.184;2023-09-07T23:24:51;101832.38;;;18.77;100.00
16016;BME280;8112;53.592;10.184;2023-09-07T23:29:53;101840.03;;;18.82;100.00
16016;BME280;8112;53.592;10.184;2023-09-07T23:34:56;101837.22;;;18.72;100.00
16016;BME280;8112;53.592;10.184;2023-09-07T23:39:58;101838.28;;;18.58;100.00
16016;BME280;8112;53.592;10.184;2023-09-07T23:45:00;101835.94;;;18.53;100.00
16016;BME280;8112;53.592;10.184;2023-09-07T23:50:03;101832.00;;;18.46;100.00
16016;BME280;8112;53.592;10.184;2023-09-07T23:55:06;101832.75;;;18.48;100.00
